Tossa de Mar, Spain
Current Conditions -  °F | °C
As of 8:00 AM on Friday 31 Oct 2014 (Local Time) from LEGE Reporting Station
Moderate Fog Moderate Fog  
Wind Chill: 50°   Ceiling: 100
Heat Index: 50°   Visibility: 0.06mi
Dew Point: 50°   Wind: 2mph
Humidity: 100%   Direction: 270°W
Pressure: 30.27"   Gusts: NA
Location:  41.72°N, 2.93°E
Report Text: LEGE 310700Z 27002KT 0100 R20/0375D FG VV001 10/10 Q1025
Loading
Personal Weather Stations






























Interactive Weather Map
Tropical Storm Tracking
New forecast layout! Learn more

10-Day Weather Forecast

Advertisements
Track Severe Weather on mobile